createdAt,value
2023-02-23T00:03:56.546Z,8.70
2023-02-23T00:07:58.273Z,8.80
2023-02-23T00:11:59.885Z,8.80
2023-02-23T00:16:14.329Z,8.80
2023-02-23T00:20:16.518Z,8.80
2023-02-23T00:24:21.698Z,8.80
2023-02-23T00:28:23.391Z,8.70
2023-02-23T00:32:25.349Z,8.70
2023-02-23T00:36:29.871Z,8.70
2023-02-23T00:40:31.500Z,8.60
2023-02-23T00:44:33.954Z,8.60
2023-02-23T00:48:35.659Z,8.60
2023-02-23T00:52:37.323Z,8.60
2023-02-23T00:56:39.794Z,8.50
2023-02-23T01:00:42.136Z,8.50
2023-02-23T01:04:43.787Z,8.50
2023-02-23T01:08:50.829Z,8.50
2023-02-23T01:12:52.789Z,8.50
2023-02-23T01:16:54.864Z,8.60
2023-02-23T01:20:56.479Z,8.70
2023-02-23T01:24:58.165Z,8.70
2023-02-23T01:29:12.173Z,8.50
2023-02-23T01:33:13.962Z,8.60
2023-02-23T01:37:15.601Z,8.50
2023-02-23T01:41:17.839Z,8.50
2023-02-23T01:45:28.046Z,8.50
2023-02-23T01:49:31.912Z,8.50
2023-02-23T01:53:39.831Z,8.50
2023-02-23T01:57:42.213Z,8.50
2023-02-23T02:01:44.849Z,8.50
2023-02-23T02:05:50.397Z,8.50
2023-02-23T02:10:13.921Z,8.50
2023-02-23T02:14:28.326Z,8.50
2023-02-23T02:18:49.332Z,8.50
2023-02-23T02:23:27.203Z,8.50
2023-02-23T02:27:50.423Z,8.50
2023-02-23T02:31:58.680Z,8.50
2023-02-23T02:36:06.129Z,8.50
2023-02-23T02:40:28.057Z,8.60
2023-02-23T02:44:38.381Z,8.60
2023-02-23T02:49:03.697Z,8.60
2023-02-23T02:53:08.887Z,8.60
2023-02-23T02:57:12.627Z,8.60
2023-02-23T03:01:35.270Z,8.50
2023-02-23T03:06:04.092Z,8.40
2023-02-23T03:10:49.228Z,8.40
2023-02-23T03:15:25.913Z,8.50
2023-02-23T03:19:52.868Z,8.50
2023-02-23T03:24:25.888Z,8.50
2023-02-23T03:29:01.598Z,8.40
2023-02-23T03:33:37.888Z,8.40
2023-02-23T03:38:24.279Z,8.40
2023-02-23T03:42:51.108Z,8.40
2023-02-23T03:47:12.601Z,8.40
2023-02-23T03:51:34.559Z,8.50
2023-02-23T03:55:58.277Z,8.30
2023-02-23T04:00:23.841Z,8.30
2023-02-23T04:04:46.237Z,8.50
2023-02-23T04:09:09.278Z,8.40
2023-02-23T04:13:22.584Z,8.40
2023-02-23T04:17:28.492Z,8.40
2023-02-23T04:21:30.949Z,8.40
2023-02-23T04:25:32.624Z,8.50
2023-02-23T04:29:34.254Z,8.50
2023-02-23T04:33:35.911Z,8.40
2023-02-23T04:37:37.714Z,8.50
2023-02-23T04:41:39.323Z,8.30
2023-02-23T04:45:41.844Z,8.40
2023-02-23T04:49:43.951Z,8.40
2023-02-23T04:53:45.592Z,8.50
2023-02-23T04:57:47.671Z,8.50
2023-02-23T05:01:49.336Z,8.50
2023-02-23T05:05:50.959Z,8.50
2023-02-23T05:09:52.790Z,8.40
2023-02-23T05:13:54.542Z,8.40
2023-02-23T05:17:56.219Z,8.40
2023-02-23T05:21:57.916Z,8.30
2023-02-23T05:26:06.091Z,8.30
2023-02-23T05:30:09.811Z,8.20
2023-02-23T05:34:11.711Z,8.30
2023-02-23T05:38:13.444Z,8.20
2023-02-23T05:42:15.124Z,8.30
2023-02-23T05:46:21.249Z,8.30
2023-02-23T05:50:22.895Z,8.30
2023-02-23T05:54:24.517Z,8.30
2023-02-23T05:58:26.236Z,8.20
2023-02-23T06:02:27.928Z,8.20
2023-02-23T06:06:29.604Z,8.30
2023-02-23T06:10:31.261Z,8.30
2023-02-23T06:14:33.328Z,8.30
2023-02-23T06:18:35.360Z,8.30
2023-02-23T06:22:37.069Z,8.30
2023-02-23T06:26:38.901Z,8.30
2023-02-23T06:30:40.701Z,8.40
2023-02-23T06:34:42.318Z,8.30
2023-02-23T06:38:44.896Z,8.30
2023-02-23T06:42:47.147Z,8.20
2023-02-23T06:46:48.832Z,8.20
2023-02-23T06:50:50.481Z,8.20
2023-02-23T06:54:52.251Z,8.30
2023-02-23T06:58:53.953Z,8.30
2023-02-23T07:02:57.697Z,8.20
2023-02-23T07:06:59.608Z,8.30
2023-02-23T07:11:13.293Z,8.40
2023-02-23T07:15:17.597Z,8.30
2023-02-23T07:19:19.280Z,8.30
2023-02-23T07:23:22.166Z,8.20
2023-02-23T07:27:23.863Z,8.30
2023-02-23T07:31:26.183Z,8.30
2023-02-23T07:35:27.840Z,8.20
2023-02-23T07:39:29.937Z,8.20
2023-02-23T07:43:31.905Z,8.30
2023-02-23T07:47:34.624Z,8.20
2023-02-23T07:51:36.298Z,8.30
2023-02-23T07:55:38.651Z,8.30
2023-02-23T07:59:40.330Z,8.40
2023-02-23T08:03:49.185Z,8.40
2023-02-23T08:07:50.947Z,8.40
2023-02-23T08:11:52.580Z,8.40
2023-02-23T08:15:54.192Z,8.50
2023-02-23T08:19:55.805Z,8.40
2023-02-23T08:23:58.136Z,8.50
2023-02-23T08:28:04.776Z,8.50
2023-02-23T08:32:06.661Z,8.50
2023-02-23T08:36:08.927Z,8.60
2023-02-23T08:40:15.313Z,8.60
2023-02-23T08:44:17.008Z,8.60
2023-02-23T08:48:18.668Z,8.70
2023-02-23T08:52:21.051Z,8.60
2023-02-23T08:56:25.139Z,8.50
2023-02-23T09:00:26.921Z,8.40
2023-02-23T09:04:31.007Z,8.50
2023-02-23T09:08:32.698Z,8.40
2023-02-23T09:12:34.352Z,8.40
2023-02-23T09:16:36.649Z,8.50
2023-02-23T09:20:41.573Z,8.70
2023-02-23T09:24:43.271Z,8.70
2023-02-23T09:28:45.462Z,8.70
2023-02-23T09:32:48.088Z,8.80
2023-02-23T09:36:49.942Z,8.70
2023-02-23T09:40:54.349Z,8.70
2023-02-23T09:45:23.659Z,8.80
2023-02-23T09:49:29.634Z,8.90
2023-02-23T09:53:51.099Z,9.10
2023-02-23T09:57:53.741Z,9.00
2023-02-23T10:02:02.159Z,9.10
2023-02-23T10:06:09.273Z,9.10
2023-02-23T10:10:28.092Z,9.20
2023-02-23T10:14:57.668Z,9.20
2023-02-23T10:19:09.426Z,9.20
2023-02-23T10:23:21.628Z,9.10
2023-02-23T10:27:30.302Z,9.00
2023-02-23T10:31:45.518Z,8.90
2023-02-23T10:35:47.763Z,8.90
2023-02-23T10:39:51.353Z,8.80
2023-02-23T10:43:53.091Z,8.80
2023-02-23T10:48:03.908Z,8.80
2023-02-23T10:52:07.289Z,8.70
2023-02-23T10:56:14.699Z,8.70
2023-02-23T11:00:16.911Z,8.70
2023-02-23T11:04:27.611Z,8.70
2023-02-23T11:08:35.855Z,8.70
2023-02-23T11:12:41.702Z,8.70
2023-02-23T11:16:43.599Z,8.70
2023-02-23T11:20:45.383Z,8.70
2023-02-23T11:24:47.113Z,8.80
2023-02-23T11:28:54.309Z,8.70
2023-02-23T11:32:57.374Z,8.80
2023-02-23T11:37:23.962Z,8.90
2023-02-23T11:41:25.599Z,8.90
2023-02-23T11:45:33.474Z,8.80
2023-02-23T11:49:36.877Z,8.80
2023-02-23T11:53:46.350Z,8.80
2023-02-23T11:57:50.210Z,8.70
2023-02-23T12:01:54.795Z,8.60
2023-02-23T12:05:59.156Z,8.60
2023-02-23T12:10:18.804Z,8.60
2023-02-23T12:14:39.997Z,8.70
2023-02-23T12:18:56.507Z,8.60
2023-02-23T12:23:03.587Z,8.40
2023-02-23T12:27:12.757Z,8.50
2023-02-23T12:31:31.019Z,8.50
2023-02-23T12:35:54.534Z,8.50
2023-02-23T12:40:16.024Z,8.50
2023-02-23T12:44:35.519Z,8.60
2023-02-23T12:48:48.541Z,8.60
2023-02-23T12:52:54.553Z,8.70
2023-02-23T12:57:21.137Z,8.70
2023-02-23T13:01:39.343Z,8.60
2023-02-23T13:06:02.825Z,8.60
2023-02-23T13:10:16.401Z,8.70
2023-02-23T13:14:27.027Z,8.80
2023-02-23T13:18:45.207Z,8.80
2023-02-23T13:23:11.592Z,8.80
2023-02-23T13:27:22.093Z,8.80
2023-02-23T13:31:33.599Z,8.60
2023-02-23T13:35:38.293Z,8.50
2023-02-23T13:39:46.022Z,8.50
2023-02-23T13:44:12.950Z,8.60
2023-02-23T13:48:32.387Z,8.70
2023-02-23T13:52:40.302Z,8.80
2023-02-23T13:56:49.604Z,8.90
2023-02-23T14:01:05.165Z,9.10
2023-02-23T14:05:28.943Z,9.10
2023-02-23T14:09:34.740Z,8.90
2023-02-23T14:13:59.541Z,9.00
2023-02-23T14:18:04.587Z,8.90
2023-02-23T14:22:12.352Z,8.80
2023-02-23T14:26:44.204Z,8.70
2023-02-23T14:30:58.956Z,8.50
2023-02-23T14:35:02.181Z,8.60
2023-02-23T14:39:10.289Z,8.50
2023-02-23T14:43:42.728Z,8.50
2023-02-23T14:47:47.738Z,8.40
2023-02-23T14:51:53.572Z,8.40
2023-02-23T14:55:57.904Z,8.40
2023-02-23T15:00:02.420Z,8.40
2023-02-23T15:04:17.262Z,8.40
2023-02-23T15:08:23.100Z,8.50
2023-02-23T15:12:30.085Z,8.30
2023-02-23T15:16:35.217Z,8.30
2023-02-23T15:20:36.931Z,8.30
2023-02-23T15:24:44.449Z,8.20
2023-02-23T15:28:47.079Z,8.10
2023-02-23T15:32:49.239Z,8.10
2023-02-23T15:36:57.121Z,8.30
2023-02-23T15:41:06.057Z,8.40
2023-02-23T15:45:28.381Z,8.50
2023-02-23T15:49:37.613Z,8.50
2023-02-23T15:53:41.160Z,8.50
2023-02-23T15:57:52.405Z,8.40
2023-02-23T16:01:55.125Z,8.40
2023-02-23T16:06:06.555Z,8.30
2023-02-23T16:10:27.704Z,8.30
2023-02-23T16:14:35.086Z,8.20
2023-02-23T16:18:40.844Z,8.20
2023-02-23T16:22:45.947Z,8.20
2023-02-23T16:26:51.956Z,8.20
2023-02-23T16:31:02.559Z,8.10
2023-02-23T16:35:15.636Z,8.00
2023-02-23T16:39:17.382Z,8.00
2023-02-23T16:43:19.211Z,8.10
2023-02-23T16:47:23.728Z,8.10
2023-02-23T16:51:27.732Z,8.00
2023-02-23T16:55:29.889Z,8.00
2023-02-23T16:59:32.442Z,8.00
2023-02-23T17:03:36.007Z,8.00
2023-02-23T17:07:39.950Z,8.00
2023-02-23T17:11:43.771Z,8.00
2023-02-23T17:15:51.749Z,8.00
2023-02-23T17:19:53.459Z,8.00
2023-02-23T17:24:02.466Z,8.00
2023-02-23T17:28:04.384Z,8.00
2023-02-23T17:32:06.468Z,8.00
2023-02-23T17:36:13.013Z,7.90
2023-02-23T17:40:36.136Z,7.90
2023-02-23T17:44:37.815Z,7.90
2023-02-23T17:48:40.566Z,7.70
2023-02-23T17:52:42.364Z,7.70
2023-02-23T17:56:44.582Z,7.70
2023-02-23T18:00:46.773Z,7.60
2023-02-23T18:04:49.816Z,7.70
2023-02-23T18:08:51.412Z,7.70
2023-02-23T18:12:53.768Z,7.80
2023-02-23T18:16:55.795Z,7.70
2023-02-23T18:20:59.557Z,7.70
2023-02-23T18:25:01.278Z,7.60
2023-02-23T18:29:04.687Z,7.60
2023-02-23T18:33:07.468Z,7.70
2023-02-23T18:37:09.879Z,7.60
2023-02-23T18:41:11.754Z,7.60
2023-02-23T18:45:14.495Z,7.50
2023-02-23T18:49:18.033Z,7.30
2023-02-23T18:53:19.635Z,7.30
2023-02-23T18:57:21.283Z,7.30
2023-02-23T19:01:28.798Z,7.20
2023-02-23T19:05:30.562Z,7.20
2023-02-23T19:09:32.434Z,7.20
2023-02-23T19:13:34.200Z,7.20
2023-02-23T19:17:36.548Z,7.30
2023-02-23T19:21:38.986Z,7.30
2023-02-23T19:25:40.858Z,7.30
2023-02-23T19:29:42.694Z,7.30
2023-02-23T19:33:44.447Z,7.30
2023-02-23T19:37:51.526Z,7.30
2023-02-23T19:41:53.195Z,7.30
2023-02-23T19:45:54.912Z,7.20
2023-02-23T19:49:56.694Z,7.20
2023-02-23T19:53:59.040Z,7.10
2023-02-23T19:58:00.714Z,7.10
2023-02-23T20:02:02.397Z,7.00
2023-02-23T20:06:06.603Z,6.90
2023-02-23T20:10:10.062Z,6.70
2023-02-23T20:14:12.333Z,6.60
2023-02-23T20:18:14.029Z,6.60
2023-02-23T20:22:15.853Z,6.60
2023-02-23T20:26:21.787Z,6.60
2023-02-23T20:30:23.948Z,6.60
2023-02-23T20:34:25.805Z,6.70
2023-02-23T20:38:27.474Z,6.70
2023-02-23T20:42:29.223Z,6.70
2023-02-23T20:46:31.512Z,6.70
2023-02-23T20:50:34.037Z,6.80
2023-02-23T20:54:36.514Z,6.80
2023-02-23T20:58:39.535Z,6.80
2023-02-23T21:02:41.436Z,6.80
2023-02-23T21:06:43.086Z,6.80
2023-02-23T21:10:45.467Z,6.80
2023-02-23T21:14:48.580Z,6.80
2023-02-23T21:18:54.855Z,7.00
2023-02-23T21:22:56.864Z,7.00
2023-02-23T21:26:58.505Z,7.00
2023-02-23T21:31:00.212Z,7.00
2023-02-23T21:35:02.014Z,7.10
2023-02-23T21:39:04.724Z,7.10
2023-02-23T21:43:08.979Z,6.90
2023-02-23T21:47:10.930Z,6.80
2023-02-23T21:51:15.501Z,6.50
2023-02-23T21:55:21.780Z,6.30
2023-02-23T21:59:23.872Z,6.20
2023-02-23T22:03:27.103Z,6.10
2023-02-23T22:07:29.471Z,6.00
2023-02-23T22:11:31.220Z,5.90
2023-02-23T22:15:33.731Z,6.00
2023-02-23T22:19:35.387Z,6.00
2023-02-23T22:23:38.236Z,6.00
2023-02-23T22:27:42.659Z,6.00
2023-02-23T22:31:44.623Z,5.90
2023-02-23T22:35:46.660Z,5.90
2023-02-23T22:39:48.762Z,5.90
2023-02-23T22:43:50.443Z,5.90
2023-02-23T22:47:52.098Z,5.90
2023-02-23T22:51:53.720Z,5.80
2023-02-23T22:55:56.220Z,5.90
2023-02-23T23:00:05.808Z,5.90
2023-02-23T23:04:10.359Z,5.80
2023-02-23T23:08:13.322Z,5.80
2023-02-23T23:12:17.932Z,5.80
2023-02-23T23:16:30.953Z,5.80
2023-02-23T23:20:33.777Z,5.70
2023-02-23T23:24:35.386Z,5.80
2023-02-23T23:28:40.248Z,6.00
2023-02-23T23:32:41.952Z,5.90
2023-02-23T23:36:49.062Z,5.80
2023-02-23T23:40:53.762Z,5.90
2023-02-23T23:44:56.860Z,5.70
2023-02-23T23:49:02.053Z,5.80
2023-02-23T23:53:04.433Z,5.70
2023-02-23T23:57:06.970Z,5.70
